sensor_id;sensor_type;location;lat;lon;timestamp;pressure;altitude;pressure_sealevel;temperature;humidity
40171;BME280;37650;52.790;18.268;2023-04-19T00:00:54;101289.26;;;5.84;84.29
40171;BME280;37650;52.790;18.268;2023-04-19T00:04:17;101287.18;;;5.79;84.38
40171;BME280;37650;52.790;18.268;2023-04-19T00:07:40;101276.59;;;5.76;84.40
40171;BME280;37650;52.790;18.268;2023-04-19T00:11:01;101271.20;;;5.68;83.95
40171;BME280;37650;52.790;18.268;2023-04-19T00:14:22;101277.84;;;5.60;84.36
40171;BME280;37650;52.790;18.268;2023-04-19T00:17:43;101276.63;;;5.59;84.82
40171;BME280;37650;52.790;18.268;2023-04-19T00:21:05;101274.55;;;5.55;84.61
40171;BME280;37650;52.790;18.268;2023-04-19T00:24:27;101268.81;;;5.49;84.76
40171;BME280;37650;52.790;18.268;2023-04-19T00:27:48;101268.64;;;5.45;84.97
40171;BME280;37650;52.790;18.268;2023-04-19T00:31:09;101269.35;;;5.42;85.13
40171;BME280;37650;52.790;18.268;2023-04-19T00:34:31;101268.84;;;5.37;85.24
40171;BME280;37650;52.790;18.268;2023-04-19T00:37:53;101269.53;;;5.36;85.14
40171;BME280;37650;52.790;18.268;2023-04-19T00:41:14;101265.35;;;5.35;85.37
40171;BME280;37650;52.790;18.268;2023-04-19T00:44:35;101262.92;;;5.30;85.51
40171;BME280;37650;52.790;18.268;2023-04-19T00:47:56;101259.98;;;5.26;85.46
40171;BME280;37650;52.790;18.268;2023-04-19T00:51:18;101258.94;;;5.21;85.80
40171;BME280;37650;52.790;18.268;2023-04-19T00:54:42;101255.80;;;5.20;86.24
40171;BME280;37650;52.790;18.268;2023-04-19T00:58:07;101251.63;;;5.19;86.48
40171;BME280;37650;52.790;18.268;2023-04-19T01:01:29;101245.89;;;5.19;86.76
40171;BME280;37650;52.790;18.268;2023-04-19T01:04:50;101245.04;;;5.14;86.33
40171;BME280;37650;52.790;18.268;2023-04-19T01:08:12;101239.82;;;5.09;86.44
40171;BME280;37650;52.790;18.268;2023-04-19T01:11:34;101238.60;;;5.06;86.53
40171;BME280;37650;52.790;18.268;2023-04-19T01:14:55;101234.09;;;5.03;86.60
40171;BME280;37650;52.790;18.268;2023-04-19T01:18:16;101233.57;;;5.01;86.98
40171;BME280;37650;52.790;18.268;2023-04-19T01:21:39;101232.02;;;4.93;86.83
40171;BME280;37650;52.790;18.268;2023-04-19T01:25:00;101228.37;;;4.83;87.05
40171;BME280;37650;52.790;18.268;2023-04-19T01:28:21;101230.45;;;4.78;87.73
40171;BME280;37650;52.790;18.268;2023-04-19T01:31:43;101226.45;;;4.73;87.75
40171;BME280;37650;52.790;18.268;2023-04-19T01:35:08;101225.73;;;4.72;88.25
40171;BME280;37650;52.790;18.268;2023-04-19T01:38:30;101226.80;;;4.72;88.10
40171;BME280;37650;52.790;18.268;2023-04-19T01:41:51;101216.55;;;4.68;88.40
40171;BME280;37650;52.790;18.268;2023-04-19T01:45:13;101220.36;;;4.67;88.71
40171;BME280;37650;52.790;18.268;2023-04-19T01:48:34;101210.98;;;4.61;88.76
40171;BME280;37650;52.790;18.268;2023-04-19T01:51:55;101207.84;;;4.57;89.34
40171;BME280;37650;52.790;18.268;2023-04-19T01:55:16;101207.33;;;4.54;89.41
40171;BME280;37650;52.790;18.268;2023-04-19T01:58:37;101199.84;;;4.48;89.19
40171;BME280;37650;52.790;18.268;2023-04-19T02:01:58;101197.93;;;4.41;89.26
40171;BME280;37650;52.790;18.268;2023-04-19T02:05:19;101192.36;;;4.34;89.43
40171;BME280;37650;52.790;18.268;2023-04-19T02:08:41;101188.36;;;4.26;89.75
40171;BME280;37650;52.790;18.268;2023-04-19T02:12:03;101182.45;;;4.21;89.94
40171;BME280;37650;52.790;18.268;2023-04-19T02:15:25;101181.57;;;4.13;90.10
40171;BME280;37650;52.790;18.268;2023-04-19T02:18:46;101177.02;;;4.00;89.94
40171;BME280;37650;52.790;18.268;2023-04-19T02:22:07;101173.70;;;3.89;90.43
40171;BME280;37650;52.790;18.268;2023-04-19T02:25:28;101171.23;;;3.80;91.00
40171;BME280;37650;52.790;18.268;2023-04-19T02:28:51;101169.66;;;3.73;90.96
40171;BME280;37650;52.790;18.268;2023-04-19T02:32:13;101169.11;;;3.67;91.27
40171;BME280;37650;52.790;18.268;2023-04-19T02:35:34;101167.73;;;3.70;91.67
40171;BME280;37650;52.790;18.268;2023-04-19T02:38:55;101159.06;;;3.72;91.82
40171;BME280;37650;52.790;18.268;2023-04-19T02:42:16;101153.33;;;3.68;91.88
40171;BME280;37650;52.790;18.268;2023-04-19T02:45:38;101147.05;;;3.59;92.04
40171;BME280;37650;52.790;18.268;2023-04-19T02:49:02;101143.04;;;3.54;92.38
40171;BME280;37650;52.790;18.268;2023-04-19T02:52:25;101134.84;;;3.45;92.62
40171;BME280;37650;52.790;18.268;2023-04-19T02:55:46;101129.95;;;3.35;92.60
40171;BME280;37650;52.790;18.268;2023-04-19T02:59:09;101125.74;;;3.25;93.16
40171;BME280;37650;52.790;18.268;2023-04-19T03:02:31;101125.90;;;3.22;93.67
40171;BME280;37650;52.790;18.268;2023-04-19T03:05:52;101122.60;;;3.18;93.93
40171;BME280;37650;52.790;18.268;2023-04-19T03:09:13;101123.95;;;3.11;94.27
40171;BME280;37650;52.790;18.268;2023-04-19T03:12:34;101122.00;;;3.04;94.55
40171;BME280;37650;52.790;18.268;2023-04-19T03:15:55;101121.63;;;3.01;95.48
40171;BME280;37650;52.790;18.268;2023-04-19T03:19:17;101114.52;;;3.00;95.70
40171;BME280;37650;52.790;18.268;2023-04-19T03:22:42;101104.46;;;2.97;95.93
40171;BME280;37650;52.790;18.268;2023-04-19T03:26:03;101098.92;;;3.00;96.22
40171;BME280;37650;52.790;18.268;2023-04-19T03:29:32;101096.67;;;3.01;96.60
40171;BME280;37650;52.790;18.268;2023-04-19T03:33:05;101104.98;;;3.00;96.71
40171;BME280;37650;52.790;18.268;2023-04-19T03:36:27;101099.93;;;2.95;96.97
40171;BME280;37650;52.790;18.268;2023-04-19T03:39:48;101093.17;;;2.92;97.40
40171;BME280;37650;52.790;18.268;2023-04-19T03:43:12;101090.76;;;2.95;97.87
40171;BME280;37650;52.790;18.268;2023-04-19T03:46:33;101087.67;;;3.02;98.47
40171;BME280;37650;52.790;18.268;2023-04-19T03:49:55;101085.29;;;3.11;99.11
40171;BME280;37650;52.790;18.268;2023-04-19T03:53:35;101081.52;;;3.19;99.17
40171;BME280;37650;52.790;18.268;2023-04-19T03:56:56;101087.23;;;3.22;99.34
40171;BME280;37650;52.790;18.268;2023-04-19T04:00:19;101080.48;;;3.23;99.85
40171;BME280;37650;52.790;18.268;2023-04-19T04:03:45;101074.08;;;3.29;100.00
40171;BME280;37650;52.790;18.268;2023-04-19T04:07:06;101071.34;;;3.37;100.00
40171;BME280;37650;52.790;18.268;2023-04-19T04:10:27;101071.03;;;3.45;100.00
40171;BME280;37650;52.790;18.268;2023-04-19T04:13:48;101068.60;;;3.48;100.00
40171;BME280;37650;52.790;18.268;2023-04-19T04:17:13;101066.00;;;3.49;100.00
40171;BME280;37650;52.790;18.268;2023-04-19T04:20:35;101073.46;;;3.53;100.00
40171;BME280;37650;52.790;18.268;2023-04-19T04:24:00;101070.19;;;3.60;100.00
40171;BME280;37650;52.790;18.268;2023-04-19T04:27:32;101075.23;;;3.65;100.00
40171;BME280;37650;52.790;18.268;2023-04-19T04:30:54;101069.33;;;3.66;100.00
40171;BME280;37650;52.790;18.268;2023-04-19T04:34:17;101074.39;;;3.72;100.00
40171;BME280;37650;52.790;18.268;2023-04-19T04:37:44;101083.77;;;3.76;100.00
40171;BME280;37650;52.790;18.268;2023-04-19T04:41:06;101082.90;;;3.82;100.00
40171;BME280;37650;52.790;18.268;2023-04-19T04:44:28;101081.70;;;3.84;100.00
40171;BME280;37650;52.790;18.268;2023-04-19T04:47:49;101080.32;;;3.90;100.00
40171;BME280;37650;52.790;18.268;2023-04-19T04:51:11;101079.79;;;3.97;100.00
40171;BME280;37650;52.790;18.268;2023-04-19T04:54:33;101073.90;;;4.01;100.00
40171;BME280;37650;52.790;18.268;2023-04-19T04:57:56;101065.06;;;4.05;100.00
40171;BME280;37650;52.790;18.268;2023-04-19T05:01:29;101062.63;;;4.08;100.00
40171;BME280;37650;52.790;18.268;2023-04-19T05:04:50;101061.93;;;4.09;100.00
40171;BME280;37650;52.790;18.268;2023-04-19T05:08:11;101048.21;;;4.09;100.00
40171;BME280;37650;52.790;18.268;2023-04-19T05:11:33;101041.79;;;4.17;100.00
40171;BME280;37650;52.790;18.268;2023-04-19T05:14:54;101033.79;;;4.21;100.00
40171;BME280;37650;52.790;18.268;2023-04-19T05:18:15;101029.45;;;4.25;100.00
40171;BME280;37650;52.790;18.268;2023-04-19T05:21:37;101020.75;;;4.29;100.00
40171;BME280;37650;52.790;18.268;2023-04-19T05:24:58;101018.85;;;4.33;100.00
40171;BME280;37650;52.790;18.268;2023-04-19T05:28:20;101018.13;;;4.42;100.00
40171;BME280;37650;52.790;18.268;2023-04-19T05:36:58;101008.55;;;4.58;100.00
40171;BME280;37650;52.790;18.268;2023-04-19T05:40:21;101000.88;;;4.59;100.00
40171;BME280;37650;52.790;18.268;2023-04-19T05:43:44;101002.10;;;4.59;100.00
40171;BME280;37650;52.790;18.268;2023-04-19T05:47:05;100996.88;;;4.64;100.00
40171;BME280;37650;52.790;18.268;2023-04-19T05:50:45;100990.26;;;4.71;100.00
40171;BME280;37650;52.790;18.268;2023-04-19T05:54:34;100990.06;;;4.76;100.00
40171;BME280;37650;52.790;18.268;2023-04-19T05:57:57;100990.23;;;4.80;100.00
40171;BME280;37650;52.790;18.268;2023-04-19T06:01:19;100995.97;;;4.79;100.00
40171;BME280;37650;52.790;18.268;2023-04-19T06:04:40;100998.05;;;4.77;100.00
40171;BME280;37650;52.790;18.268;2023-04-19T06:08:01;101018.06;;;4.75;100.00
40171;BME280;37650;52.790;18.268;2023-04-19T06:11:23;101010.94;;;4.73;100.00
40171;BME280;37650;52.790;18.268;2023-04-19T06:14:44;101010.59;;;4.74;100.00
40171;BME280;37650;52.790;18.268;2023-04-19T06:23:00;100996.50;;;4.80;100.00
40171;BME280;37650;52.790;18.268;2023-04-19T06:26:21;100994.20;;;4.83;100.00
40171;BME280;37650;52.790;18.268;2023-04-19T06:29:43;100994.88;;;4.89;100.00
40171;BME280;37650;52.790;18.268;2023-04-19T06:33:04;100986.69;;;4.94;100.00
40171;BME280;37650;52.790;18.268;2023-04-19T06:36:25;100993.30;;;4.92;100.00
40171;BME280;37650;52.790;18.268;2023-04-19T06:39:46;100993.46;;;4.92;100.00
40171;BME280;37650;52.790;18.268;2023-04-19T06:43:09;100992.60;;;4.95;100.00
40171;BME280;37650;52.790;18.268;2023-04-19T06:46:30;100995.56;;;4.95;100.00
40171;BME280;37650;52.790;18.268;2023-04-19T06:49:52;100996.61;;;4.92;100.00
40171;BME280;37650;52.790;18.268;2023-04-19T06:53:13;100992.80;;;4.87;100.00
40171;BME280;37650;52.790;18.268;2023-04-19T06:56:45;100986.39;;;4.84;100.00
40171;BME280;37650;52.790;18.268;2023-04-19T07:00:07;100974.56;;;4.85;100.00
40171;BME280;37650;52.790;18.268;2023-04-19T07:03:28;100967.61;;;4.82;100.00
40171;BME280;37650;52.790;18.268;2023-04-19T07:06:52;100956.64;;;4.86;100.00
40171;BME280;37650;52.790;18.268;2023-04-19T07:10:13;100952.11;;;4.88;100.00
40171;BME280;37650;52.790;18.268;2023-04-19T07:13:34;100952.11;;;4.91;100.00
40171;BME280;37650;52.790;18.268;2023-04-19T07:16:55;100943.95;;;4.87;100.00
40171;BME280;37650;52.790;18.268;2023-04-19T07:20:16;100945.89;;;4.82;100.00
40171;BME280;37650;52.790;18.268;2023-04-19T07:23:38;100944.66;;;4.82;100.00
40171;BME280;37650;52.790;18.268;2023-04-19T07:26:59;100943.80;;;4.82;100.00
40171;BME280;37650;52.790;18.268;2023-04-19T07:30:21;100943.61;;;4.86;100.00
40171;BME280;37650;52.790;18.268;2023-04-19T07:33:43;100937.36;;;4.86;100.00
40171;BME280;37650;52.790;18.268;2023-04-19T07:37:04;100933.17;;;4.86;100.00
40171;BME280;37650;52.790;18.268;2023-04-19T07:40:26;100932.27;;;4.93;100.00
40171;BME280;37650;52.790;18.268;2023-04-19T07:43:46;100934.00;;;4.96;100.00
40171;BME280;37650;52.790;18.268;2023-04-19T07:47:08;100932.77;;;4.98;100.00
40171;BME280;37650;52.790;18.268;2023-04-19T07:50:29;100926.98;;;5.04;100.00
40171;BME280;37650;52.790;18.268;2023-04-19T07:53:51;100922.27;;;5.09;100.00
40171;BME280;37650;52.790;18.268;2023-04-19T07:57:12;100918.21;;;5.19;100.00
40171;BME280;37650;52.790;18.268;2023-04-19T08:00:33;100921.11;;;5.27;100.00
40171;BME280;37650;52.790;18.268;2023-04-19T08:03:56;100911.69;;;5.31;100.00
40171;BME280;37650;52.790;18.268;2023-04-19T08:07:17;100922.83;;;5.30;100.00
40171;BME280;37650;52.790;18.268;2023-04-19T08:10:39;100929.67;;;5.21;100.00
40171;BME280;37650;52.790;18.268;2023-04-19T08:14:01;100928.23;;;5.29;100.00
40171;BME280;37650;52.790;18.268;2023-04-19T08:17:22;100929.40;;;5.37;100.00
40171;BME280;37650;52.790;18.268;2023-04-19T08:20:45;100929.75;;;5.35;100.00
40171;BME280;37650;52.790;18.268;2023-04-19T08:24:07;100933.23;;;5.35;100.00
40171;BME280;37650;52.790;18.268;2023-04-19T08:27:28;100935.67;;;5.34;100.00
40171;BME280;37650;52.790;18.268;2023-04-19T08:30:50;100930.81;;;5.34;100.00
40171;BME280;37650;52.790;18.268;2023-04-19T08:34:11;100935.17;;;5.32;100.00
40171;BME280;37650;52.790;18.268;2023-04-19T08:37:32;100933.92;;;5.35;100.00
40171;BME280;37650;52.790;18.268;2023-04-19T08:40:54;100929.05;;;5.36;100.00
40171;BME280;37650;52.790;18.268;2023-04-19T08:44:15;100929.57;;;5.36;100.00
40171;BME280;37650;52.790;18.268;2023-04-19T08:47:37;100935.31;;;5.37;100.00
40171;BME280;37650;52.790;18.268;2023-04-19T08:50:59;100941.57;;;5.35;100.00
40171;BME280;37650;52.790;18.268;2023-04-19T08:54:21;100945.77;;;5.34;100.00
40171;BME280;37650;52.790;18.268;2023-04-19T08:57:42;100937.08;;;5.34;100.00
40171;BME280;37650;52.790;18.268;2023-04-19T09:01:04;100937.41;;;5.34;100.00
40171;BME280;37650;52.790;18.268;2023-04-19T09:04:27;100934.83;;;5.32;100.00
40171;BME280;37650;52.790;18.268;2023-04-19T09:07:48;100932.57;;;5.30;100.00
40171;BME280;37650;52.790;18.268;2023-04-19T09:11:09;100934.48;;;5.34;100.00
40171;BME280;37650;52.790;18.268;2023-04-19T09:14:31;100929.05;;;5.34;100.00
40171;BME280;37650;52.790;18.268;2023-04-19T09:18:06;100928.87;;;5.36;100.00
40171;BME280;37650;52.790;18.268;2023-04-19T09:21:30;100927.81;;;5.39;100.00
40171;BME280;37650;52.790;18.268;2023-04-19T09:24:52;100929.04;;;5.39;100.00
40171;BME280;37650;52.790;18.268;2023-04-19T09:28:13;100926.60;;;5.39;100.00
40171;BME280;37650;52.790;18.268;2023-04-19T09:31:36;100927.77;;;5.46;100.00
40171;BME280;37650;52.790;18.268;2023-04-19T09:34:58;100929.27;;;5.53;100.00
40171;BME280;37650;52.790;18.268;2023-04-19T09:38:20;100926.82;;;5.56;100.00
40171;BME280;37650;52.790;18.268;2023-04-19T09:41:51;100927.67;;;5.57;100.00
40171;BME280;37650;52.790;18.268;2023-04-19T09:45:13;100926.23;;;5.61;100.00
40171;BME280;37650;52.790;18.268;2023-04-19T09:48:35;100921.67;;;5.67;100.00
40171;BME280;37650;52.790;18.268;2023-04-19T09:51:57;100920.26;;;5.71;100.00
40171;BME280;37650;52.790;18.268;2023-04-19T09:55:18;100914.61;;;5.79;100.00
40171;BME280;37650;52.790;18.268;2023-04-19T09:58:40;100912.48;;;5.86;100.00
40171;BME280;37650;52.790;18.268;2023-04-19T10:02:03;100913.15;;;5.90;100.00
40171;BME280;37650;52.790;18.268;2023-04-19T10:05:24;100912.80;;;5.89;100.00
40171;BME280;37650;52.790;18.268;2023-04-19T10:08:48;100910.29;;;5.97;100.00
40171;BME280;37650;52.790;18.268;2023-04-19T10:12:09;100910.42;;;6.01;100.00
40171;BME280;37650;52.790;18.268;2023-04-19T10:15:31;100907.24;;;6.05;100.00
40171;BME280;37650;52.790;18.268;2023-04-19T10:18:54;100907.02;;;6.10;100.00
40171;BME280;37650;52.790;18.268;2023-04-19T10:22:15;100905.61;;;6.13;100.00
40171;BME280;37650;52.790;18.268;2023-04-19T10:25:37;100907.61;;;6.21;100.00
40171;BME280;37650;52.790;18.268;2023-04-19T10:28:59;100908.22;;;6.29;100.00
40171;BME280;37650;52.790;18.268;2023-04-19T10:32:21;100903.81;;;6.33;100.00
40171;BME280;37650;52.790;18.268;2023-04-19T10:35:44;100900.43;;;6.39;100.00
40171;BME280;37650;52.790;18.268;2023-04-19T10:39:38;100902.59;;;6.49;100.00
40171;BME280;37650;52.790;18.268;2023-04-19T10:43:13;100901.94;;;6.59;100.00
40171;BME280;37650;52.790;18.268;2023-04-19T10:46:37;100896.56;;;6.70;100.00
40171;BME280;37650;52.790;18.268;2023-04-19T10:50:03;100898.40;;;6.76;100.00
40171;BME280;37650;52.790;18.268;2023-04-19T10:54:42;100893.40;;;6.85;100.00
40171;BME280;37650;52.790;18.268;2023-04-19T10:58:06;100892.90;;;6.83;100.00
40171;BME280;37650;52.790;18.268;2023-04-19T11:08:22;100895.86;;;6.84;100.00
40171;BME280;37650;52.790;18.268;2023-04-19T11:11:43;100899.83;;;6.87;100.00
40171;BME280;37650;52.790;18.268;2023-04-19T11:15:06;100897.36;;;6.88;100.00
40171;BME280;37650;52.790;18.268;2023-04-19T11:18:29;100900.08;;;6.81;100.00
40171;BME280;37650;52.790;18.268;2023-04-19T11:21:50;100905.66;;;6.82;100.00
40171;BME280;37650;52.790;18.268;2023-04-19T11:25:13;100904.16;;;6.75;100.00
40171;BME280;37650;52.790;18.268;2023-04-19T11:28:37;100899.98;;;6.74;100.00
40171;BME280;37650;52.790;18.268;2023-04-19T11:31:59;100898.91;;;6.78;100.00
40171;BME280;37650;52.790;18.268;2023-04-19T11:35:24;100895.80;;;6.88;100.00
40171;BME280;37650;52.790;18.268;2023-04-19T11:38:49;100886.02;;;7.01;100.00
40171;BME280;37650;52.790;18.268;2023-04-19T11:42:17;100890.98;;;7.19;100.00
40171;BME280;37650;52.790;18.268;2023-04-19T11:45:38;100886.48;;;7.28;100.00
40171;BME280;37650;52.790;18.268;2023-04-19T11:49:00;100888.27;;;7.25;100.00
40171;BME280;37650;52.790;18.268;2023-04-19T11:52:23;100895.27;;;7.24;100.00
40171;BME280;37650;52.790;18.268;2023-04-19T11:55:56;100893.96;;;7.18;100.00
40171;BME280;37650;52.790;18.268;2023-04-19T11:59:18;100892.05;;;7.18;100.00
40171;BME280;37650;52.790;18.268;2023-04-19T12:02:42;100891.73;;;7.28;100.00
40171;BME280;37650;52.790;18.268;2023-04-19T12:06:03;100888.52;;;7.43;100.00
40171;BME280;37650;52.790;18.268;2023-04-19T12:09:28;100891.26;;;7.46;100.00
40171;BME280;37650;52.790;18.268;2023-04-19T12:12:49;100892.02;;;7.42;100.00
40171;BME280;37650;52.790;18.268;2023-04-19T12:16:11;100890.41;;;7.34;100.00
40171;BME280;37650;52.790;18.268;2023-04-19T12:19:51;100890.15;;;7.39;100.00
40171;BME280;37650;52.790;18.268;2023-04-19T12:23:13;100890.53;;;7.37;100.00
40171;BME280;37650;52.790;18.268;2023-04-19T12:26:35;100896.70;;;7.33;100.00
40171;BME280;37650;52.790;18.268;2023-04-19T12:29:57;100899.31;;;7.34;100.00
40171;BME280;37650;52.790;18.268;2023-04-19T12:33:18;100900.94;;;7.30;100.00
40171;BME280;37650;52.790;18.268;2023-04-19T12:36:39;100898.73;;;7.27;100.00
40171;BME280;37650;52.790;18.268;2023-04-19T12:40:00;100904.16;;;7.25;100.00
40171;BME280;37650;52.790;18.268;2023-04-19T12:43:22;100902.80;;;7.23;100.00
40171;BME280;37650;52.790;18.268;2023-04-19T12:46:43;100895.90;;;7.17;100.00
40171;BME280;37650;52.790;18.268;2023-04-19T12:50:05;100895.05;;;7.16;100.00
40171;BME280;37650;52.790;18.268;2023-04-19T12:53:27;100891.48;;;7.21;100.00
40171;BME280;37650;52.790;18.268;2023-04-19T12:56:48;100887.42;;;7.24;100.00
40171;BME280;37650;52.790;18.268;2023-04-19T13:00:10;100888.37;;;7.30;100.00
40171;BME280;37650;52.790;18.268;2023-04-19T13:03:32;100884.95;;;7.58;100.00
40171;BME280;37650;52.790;18.268;2023-04-19T13:06:55;100886.35;;;7.97;100.00
40171;BME280;37650;52.790;18.268;2023-04-19T13:10:16;100884.46;;;8.05;100.00
40171;BME280;37650;52.790;18.268;2023-04-19T13:13:38;100881.79;;;7.99;100.00
40171;BME280;37650;52.790;18.268;2023-04-19T13:16:59;100883.38;;;7.97;100.00
40171;BME280;37650;52.790;18.268;2023-04-19T13:20:20;100889.63;;;7.90;100.00
40171;BME280;37650;52.790;18.268;2023-04-19T13:23:42;100888.09;;;7.79;100.00
40171;BME280;37650;52.790;18.268;2023-04-19T13:27:04;100889.55;;;7.66;100.00
40171;BME280;37650;52.790;18.268;2023-04-19T13:30:25;100889.59;;;7.52;100.00
40171;BME280;37650;52.790;18.268;2023-04-19T13:33:46;100890.35;;;7.48;100.00
40171;BME280;37650;52.790;18.268;2023-04-19T13:37:08;100886.91;;;7.56;100.00
40171;BME280;37650;52.790;18.268;2023-04-19T13:40:29;100886.19;;;7.68;100.00
40171;BME280;37650;52.790;18.268;2023-04-19T13:43:50;100883.98;;;7.74;100.00
40171;BME280;37650;52.790;18.268;2023-04-19T13:47:12;100888.77;;;7.70;100.00
40171;BME280;37650;52.790;18.268;2023-04-19T13:50:33;100887.35;;;7.62;100.00
40171;BME280;37650;52.790;18.268;2023-04-19T13:53:54;100885.98;;;7.49;100.00
40171;BME280;37650;52.790;18.268;2023-04-19T13:57:16;100884.49;;;7.43;100.00
40171;BME280;37650;52.790;18.268;2023-04-19T14:00:37;100880.45;;;7.46;100.00
40171;BME280;37650;52.790;18.268;2023-04-19T14:03:58;100883.72;;;7.48;100.00
40171;BME280;37650;52.790;18.268;2023-04-19T14:07:19;100887.31;;;7.43;100.00
40171;BME280;37650;52.790;18.268;2023-04-19T14:10:40;100887.16;;;7.41;100.00
40171;BME280;37650;52.790;18.268;2023-04-19T14:14:01;100889.73;;;7.33;100.00
40171;BME280;37650;52.790;18.268;2023-04-19T14:17:23;100889.87;;;7.24;100.00
40171;BME280;37650;52.790;18.268;2023-04-19T14:20:44;100888.70;;;7.21;100.00
40171;BME280;37650;52.790;18.268;2023-04-19T14:24:06;100886.16;;;7.26;100.00
40171;BME280;37650;52.790;18.268;2023-04-19T14:27:27;100885.66;;;7.26;100.00
40171;BME280;37650;52.790;18.268;2023-04-19T14:30:49;100886.92;;;7.22;100.00
40171;BME280;37650;52.790;18.268;2023-04-19T14:34:10;100890.07;;;7.22;100.00
40171;BME280;37650;52.790;18.268;2023-04-19T14:37:32;100886.90;;;7.24;100.00
40171;BME280;37650;52.790;18.268;2023-04-19T14:40:53;100885.55;;;7.20;100.00
40171;BME280;37650;52.790;18.268;2023-04-19T14:44:14;100885.08;;;7.17;100.00
40171;BME280;37650;52.790;18.268;2023-04-19T14:47:36;100887.85;;;7.19;100.00
40171;BME280;37650;52.790;18.268;2023-04-19T14:50:57;100893.20;;;7.22;100.00
40171;BME280;37650;52.790;18.268;2023-04-19T14:54:18;100887.42;;;7.23;100.00
40171;BME280;37650;52.790;18.268;2023-04-19T14:57:39;100883.30;;;7.20;100.00
40171;BME280;37650;52.790;18.268;2023-04-19T15:01:12;100885.40;;;7.19;100.00
40171;BME280;37650;52.790;18.268;2023-04-19T15:04:34;100881.32;;;7.24;100.00
40171;BME280;37650;52.790;18.268;2023-04-19T15:07:55;100886.98;;;7.31;100.00
40171;BME280;37650;52.790;18.268;2023-04-19T15:11:16;100885.52;;;7.34;100.00
40171;BME280;37650;52.790;18.268;2023-04-19T15:14:38;100882.35;;;7.37;100.00
40171;BME280;37650;52.790;18.268;2023-04-19T15:17:59;100880.96;;;7.36;100.00
40171;BME280;37650;52.790;18.268;2023-04-19T15:21:21;100885.11;;;7.37;100.00
40171;BME280;37650;52.790;18.268;2023-04-19T15:24:42;100882.59;;;7.42;100.00
40171;BME280;37650;52.790;18.268;2023-04-19T15:28:03;100887.61;;;7.46;100.00
40171;BME280;37650;52.790;18.268;2023-04-19T15:31:25;100886.30;;;7.51;100.00
40171;BME280;37650;52.790;18.268;2023-04-19T15:34:46;100890.90;;;7.58;100.00
40171;BME280;37650;52.790;18.268;2023-04-19T15:38:08;100888.64;;;7.67;100.00
40171;BME280;37650;52.790;18.268;2023-04-19T15:41:29;100886.54;;;7.68;100.00
40171;BME280;37650;52.790;18.268;2023-04-19T15:44:50;100892.77;;;7.71;100.00
40171;BME280;37650;52.790;18.268;2023-04-19T15:48:11;100888.11;;;7.77;100.00
40171;BME280;37650;52.790;18.268;2023-04-19T15:51:33;100889.54;;;7.86;100.00
40171;BME280;37650;52.790;18.268;2023-04-19T15:54:54;100889.21;;;7.94;100.00
40171;BME280;37650;52.790;18.268;2023-04-19T15:58:15;100891.98;;;7.95;100.00
40171;BME280;37650;52.790;18.268;2023-04-19T16:01:36;100892.48;;;7.96;100.00
40171;BME280;37650;52.790;18.268;2023-04-19T16:04:57;100887.02;;;7.99;100.00
40171;BME280;37650;52.790;18.268;2023-04-19T16:08:19;100886.92;;;8.04;100.00
40171;BME280;37650;52.790;18.268;2023-04-19T16:11:40;100886.67;;;8.08;100.00
40171;BME280;37650;52.790;18.268;2023-04-19T16:15:02;100888.13;;;8.06;100.00
40171;BME280;37650;52.790;18.268;2023-04-19T16:18:24;100890.62;;;8.02;100.00
40171;BME280;37650;52.790;18.268;2023-04-19T16:21:45;100891.31;;;8.02;100.00
40171;BME280;37650;52.790;18.268;2023-04-19T16:25:07;100897.94;;;8.03;100.00
40171;BME280;37650;52.790;18.268;2023-04-19T16:28:31;100899.71;;;8.03;100.00
40171;BME280;37650;52.790;18.268;2023-04-19T16:31:52;100900.65;;;7.99;100.00
40171;BME280;37650;52.790;18.268;2023-04-19T16:35:13;100899.45;;;7.97;100.00
40171;BME280;37650;52.790;18.268;2023-04-19T16:38:35;100899.79;;;7.98;100.00
40171;BME280;37650;52.790;18.268;2023-04-19T16:41:56;100902.25;;;7.98;100.00
40171;BME280;37650;52.790;18.268;2023-04-19T16:45:17;100907.38;;;7.94;100.00
40171;BME280;37650;52.790;18.268;2023-04-19T16:48:39;100904.21;;;7.95;100.00
40171;BME280;37650;52.790;18.268;2023-04-19T16:51:59;100908.02;;;7.96;100.00
40171;BME280;37650;52.790;18.268;2023-04-19T16:55:21;100911.36;;;7.96;100.00
40171;BME280;37650;52.790;18.268;2023-04-19T16:58:42;100919.41;;;7.95;100.00
40171;BME280;37650;52.790;18.268;2023-04-19T17:02:04;100921.24;;;7.90;100.00
40171;BME280;37650;52.790;18.268;2023-04-19T17:05:27;100921.65;;;7.87;100.00
40171;BME280;37650;52.790;18.268;2023-04-19T17:08:49;100921.50;;;7.85;100.00
40171;BME280;37650;52.790;18.268;2023-04-19T17:12:10;100918.75;;;7.83;100.00
40171;BME280;37650;52.790;18.268;2023-04-19T17:15:32;100919.55;;;7.77;100.00
40171;BME280;37650;52.790;18.268;2023-04-19T17:18:54;100926.10;;;7.72;100.00
40171;BME280;37650;52.790;18.268;2023-04-19T17:22:16;100931.18;;;7.70;100.00
40171;BME280;37650;52.790;18.268;2023-04-19T17:25:38;100936.49;;;7.67;100.00
40171;BME280;37650;52.790;18.268;2023-04-19T17:28:59;100943.37;;;7.63;100.00
40171;BME280;37650;52.790;18.268;2023-04-19T17:32:20;100952.70;;;7.58;100.00
40171;BME280;37650;52.790;18.268;2023-04-19T17:35:42;100952.98;;;7.51;100.00
40171;BME280;37650;52.790;18.268;2023-04-19T17:39:04;100956.19;;;7.47;100.00
40171;BME280;37650;52.790;18.268;2023-04-19T17:42:27;100968.09;;;7.45;100.00
40171;BME280;37650;52.790;18.268;2023-04-19T17:45:50;100976.14;;;7.43;100.00